Time;durP1;ratioP1;P1;durP2;ratioP2;P2;SDS_P1;SDS_P2;PMS_P1;PMS_P2;Temp;Humidity;BMP_temperature;BMP_pressure;BME280_temperature;BME280_humidity;BME280_pressure;Samples;Min_cycle;Max_cycle;Signal;HPM_P1;HPM_P2
2023/12/24 00:01:10;;;;;;;;;;;8.20;99.90;;;;;;5138620;27;19911;-68
2023/12/24 00:03:36;;;;;;;;;;;8.10;99.90;;;;;;5128418;27;20471;-68
2023/12/24 00:06:02;;;;;;;;;;;8.20;99.90;;;;;;5139457;27;20033;-69
2023/12/24 00:08:28;;;;;;;;;;;8.10;99.90;;;;;;5124395;27;20010;-68
2023/12/24 00:10:55;;;;;;;;;;;8.20;99.90;;;;;;5141891;27;20664;-69
2023/12/24 00:13:20;;;;;;;;;;;8.20;99.90;;;;;;5134997;27;20007;-68
2023/12/24 00:15:46;;;;;;;;;;;8.20;99.90;;;;;;5134676;27;20006;-68
2023/12/24 00:18:11;;;;;;;;;;;8.20;99.90;;;;;;5141082;27;19919;-68
2023/12/24 00:20:37;;;;;;;;;;;8.10;99.90;;;;;;5129160;27;20385;-69
2023/12/24 00:23:07;;;;;;;;;;;8.20;99.90;;;;;;5146644;27;19911;-68
2023/12/24 00:25:34;;;;;;;;;;;8.10;99.90;;;;;;5125622;27;19911;-68
2023/12/24 00:28:00;;;;;;;;;;;8.20;99.90;;;;;;5107086;27;20664;-69
2023/12/24 00:30:28;;;;;;;;;;;8.10;99.90;;;;;;5138485;27;19918;-69
2023/12/24 00:32:54;;;;;;;;;;;8.10;99.90;;;;;;5121251;27;19915;-68
2023/12/24 00:35:20;;;;;;;;;;;8.10;99.90;;;;;;5112209;27;19927;-68
2023/12/24 00:37:45;;;;;;;;;;;8.20;99.90;;;;;;5136942;27;20022;-69
2023/12/24 00:40:11;;;;;;;;;;;8.20;99.90;;;;;;5138045;27;19911;-68
2023/12/24 00:42:36;;;;;;;;;;;8.10;99.90;;;;;;5144805;27;19967;-68
2023/12/24 00:45:02;;;;;;;;;;;8.20;99.90;;;;;;5126231;27;20033;-69
2023/12/24 00:47:27;;;;;;;;;;;8.20;99.90;;;;;;5125659;27;20346;-69
2023/12/24 00:49:53;;;;;;;;;;;8.10;99.90;;;;;;5135348;27;20371;-68
2023/12/24 00:52:18;;;;;;;;;;;8.10;99.90;;;;;;5145418;27;19997;-69
2023/12/24 00:54:44;;;;;;;;;;;8.20;99.90;;;;;;5143423;27;20336;-69
2023/12/24 00:57:09;;;;;;;;;;;8.20;99.90;;;;;;5134210;27;19912;-68
2023/12/24 00:59:35;;;;;;;;;;;8.10;99.90;;;;;;5125255;27;19916;-68
2023/12/24 01:02:00;;;;;;;;;;;8.20;99.90;;;;;;5137912;27;20372;-68
2023/12/24 01:04:26;;;;;;;;;;;8.20;99.90;;;;;;5138358;27;20357;-69
2023/12/24 01:06:51;;;;;;;;;;;8.10;99.90;;;;;;5128756;27;19911;-69
2023/12/24 01:09:17;;;;;;;;;;;8.20;99.90;;;;;;5133794;27;19915;-69
2023/12/24 01:11:42;;;;;;;;;;;8.20;99.90;;;;;;5123344;27;19912;-68
2023/12/24 01:14:09;;;;;;;;;;;8.20;99.90;;;;;;5139913;27;20356;-68
2023/12/24 01:16:38;;;;;;;;;;;8.20;99.90;;;;;;5137296;27;19911;-69
2023/12/24 01:19:03;;;;;;;;;;;8.20;99.90;;;;;;5144620;27;19907;-68
2023/12/24 01:21:29;;;;;;;;;;;8.20;99.90;;;;;;5146782;27;19911;-68
2023/12/24 01:23:54;;;;;;;;;;;8.20;99.90;;;;;;5150385;27;20275;-68
2023/12/24 01:26:20;;;;;;;;;;;8.20;99.90;;;;;;5150361;27;20465;-69
2023/12/24 01:28:45;;;;;;;;;;;8.20;99.90;;;;;;5149706;27;19922;-69
2023/12/24 01:31:11;;;;;;;;;;;8.20;99.90;;;;;;5143740;27;19922;-69
2023/12/24 01:33:36;;;;;;;;;;;8.20;99.90;;;;;;5147594;27;19907;-68
2023/12/24 01:36:02;;;;;;;;;;;8.20;99.90;;;;;;5145125;27;19912;-69
2023/12/24 01:38:28;;;;;;;;;;;8.20;99.90;;;;;;5137409;27;19911;-68
2023/12/24 01:40:53;;;;;;;;;;;8.20;99.90;;;;;;5149784;27;19938;-68
2023/12/24 01:43:18;;;;;;;;;;;8.20;99.90;;;;;;5142467;27;19918;-68
2023/12/24 01:45:44;;;;;;;;;;;8.20;99.90;;;;;;5139770;27;19918;-69
2023/12/24 01:48:11;;;;;;;;;;;8.20;99.90;;;;;;5135161;27;19915;-68
2023/12/24 01:50:37;;;;;;;;;;;8.20;99.90;;;;;;5147099;27;19911;-69
2023/12/24 01:53:04;;;;;;;;;;;8.20;99.90;;;;;;5149648;27;19907;-69
2023/12/24 01:55:29;;;;;;;;;;;8.20;99.90;;;;;;5149284;27;19911;-69
2023/12/24 01:57:55;;;;;;;;;;;8.20;99.90;;;;;;5145456;27;19944;-69
2023/12/24 02:00:20;;;;;;;;;;;8.20;99.90;;;;;;5128418;27;19926;-68
2023/12/24 02:02:48;;;;;;;;;;;8.20;99.90;;;;;;5145427;27;20026;-69
2023/12/24 02:05:13;;;;;;;;;;;8.20;99.90;;;;;;5143981;27;19931;-69
2023/12/24 02:07:39;;;;;;;;;;;8.20;99.90;;;;;;5137866;27;19915;-69
2023/12/24 02:10:05;;;;;;;;;;;8.20;99.90;;;;;;5144209;27;19915;-69
2023/12/24 02:12:31;;;;;;;;;;;8.20;99.90;;;;;;5145093;27;20398;-69
2023/12/24 02:14:56;;;;;;;;;;;8.20;99.90;;;;;;5132871;27;19951;-69
2023/12/24 02:17:22;;;;;;;;;;;8.20;99.90;;;;;;5148900;27;19914;-68
2023/12/24 02:19:48;;;;;;;;;;;8.20;99.90;;;;;;5121702;27;19912;-69
2023/12/24 02:22:13;;;;;;;;;;;8.20;99.90;;;;;;5142438;27;19984;-69
2023/12/24 02:24:39;;;;;;;;;;;8.20;99.90;;;;;;5146780;27;19911;-69
2023/12/24 02:27:07;;;;;;;;;;;8.20;99.90;;;;;;5135307;27;19966;-68
2023/12/24 02:29:36;;;;;;;;;;;8.20;99.90;;;;;;5135544;27;19934;-69
2023/12/24 02:32:13;;;;;;;;;;;8.20;99.90;;;;;;5133231;27;20011;-69
2023/12/24 02:34:39;;;;;;;;;;;8.20;99.90;;;;;;5126835;27;19908;-69
2023/12/24 02:37:05;;;;;;;;;;;8.20;99.90;;;;;;5135179;27;19918;-69
2023/12/24 02:39:30;;;;;;;;;;;8.20;99.90;;;;;;5136345;27;19911;-69
2023/12/24 02:41:56;;;;;;;;;;;8.20;99.90;;;;;;5136808;27;19918;-69
2023/12/24 02:44:21;;;;;;;;;;;8.20;99.90;;;;;;5135766;27;19911;-69
2023/12/24 02:46:47;;;;;;;;;;;8.20;99.90;;;;;;5139674;27;19911;-68
2023/12/24 02:49:14;;;;;;;;;;;8.20;99.90;;;;;;5139748;27;19911;-69
2023/12/24 02:51:39;;;;;;;;;;;8.20;99.90;;;;;;5148474;27;19911;-69
2023/12/24 02:54:05;;;;;;;;;;;8.20;99.90;;;;;;5134902;27;19926;-69
2023/12/24 02:56:36;;;;;;;;;;;8.20;99.90;;;;;;5139041;27;19964;-68
2023/12/24 02:59:05;;;;;;;;;;;8.20;99.90;;;;;;5141026;27;19911;-68
2023/12/24 03:01:30;;;;;;;;;;;8.20;99.90;;;;;;5139029;27;20360;-69
2023/12/24 03:03:56;;;;;;;;;;;8.20;99.90;;;;;;5127415;27;19918;-69
2023/12/24 03:06:22;;;;;;;;;;;8.20;99.90;;;;;;5131296;27;20321;-69
2023/12/24 03:08:47;;;;;;;;;;;8.20;99.90;;;;;;5137709;27;19951;-69
2023/12/24 03:11:13;;;;;;;;;;;8.20;99.90;;;;;;5148219;27;20014;-69
2023/12/24 03:13:38;;;;;;;;;;;8.20;99.90;;;;;;5130920;27;19917;-69
2023/12/24 03:16:04;;;;;;;;;;;8.20;99.90;;;;;;5147959;27;19911;-69
2023/12/24 03:18:30;;;;;;;;;;;8.20;99.90;;;;;;5138935;27;19945;-69
2023/12/24 03:20:56;;;;;;;;;;;8.20;99.90;;;;;;5130729;27;19911;-69
2023/12/24 03:23:22;;;;;;;;;;;8.20;99.90;;;;;;5147885;27;19954;-69
2023/12/24 03:25:47;;;;;;;;;;;8.20;99.90;;;;;;5131315;27;19946;-68
2023/12/24 03:28:13;;;;;;;;;;;8.20;99.90;;;;;;5135164;27;19915;-68
2023/12/24 03:30:38;;;;;;;;;;;8.20;99.90;;;;;;5126353;27;19918;-69
2023/12/24 03:33:04;;;;;;;;;;;8.20;99.90;;;;;;5140174;27;20352;-69
2023/12/24 03:35:29;;;;;;;;;;;8.20;99.90;;;;;;5147320;27;20006;-69
2023/12/24 03:37:55;;;;;;;;;;;8.20;99.90;;;;;;5144212;27;19922;-69
2023/12/24 03:40:20;;;;;;;;;;;8.20;99.90;;;;;;5134987;27;20384;-69
2023/12/24 03:42:46;;;;;;;;;;;8.20;99.90;;;;;;5135142;27;19918;-69
2023/12/24 03:45:11;;;;;;;;;;;8.20;99.90;;;;;;5126947;27;19915;-68
2023/12/24 03:47:37;;;;;;;;;;;8.20;99.90;;;;;;5143571;27;19922;-69
2023/12/24 03:50:02;;;;;;;;;;;8.20;99.90;;;;;;5138523;27;20363;-68
2023/12/24 03:52:28;;;;;;;;;;;8.20;99.90;;;;;;5147559;27;19915;-68
2023/12/24 03:54:53;;;;;;;;;;;8.20;99.90;;;;;;5144403;27;20399;-69
2023/12/24 03:57:19;;;;;;;;;;;8.20;99.90;;;;;;5131934;27;19915;-69
2023/12/24 03:59:44;;;;;;;;;;;8.20;99.90;;;;;;5128332;27;19912;-69
2023/12/24 04:02:10;;;;;;;;;;;8.20;99.90;;;;;;5138467;27;19911;-68
2023/12/24 04:04:35;;;;;;;;;;;8.20;99.90;;;;;;5146214;27;19911;-69
2023/12/24 04:07:01;;;;;;;;;;;8.20;99.90;;;;;;5123242;27;20009;-69
2023/12/24 04:09:28;;;;;;;;;;;8.20;99.90;;;;;;5134415;27;19915;-68
2023/12/24 04:11:54;;;;;;;;;;;8.20;99.90;;;;;;5129574;27;19991;-68
2023/12/24 04:14:19;;;;;;;;;;;8.20;99.90;;;;;;5121573;27;20666;-69
2023/12/24 04:16:45;;;;;;;;;;;8.20;99.90;;;;;;5117924;27;20526;-68
2023/12/24 04:19:10;;;;;;;;;;;8.20;99.90;;;;;;5138213;27;19921;-68
2023/12/24 04:21:36;;;;;;;;;;;8.20;99.90;;;;;;5126799;27;19918;-69
2023/12/24 04:24:02;;;;;;;;;;;8.20;99.90;;;;;;5139092;27;19986;-69
2023/12/24 04:26:27;;;;;;;;;;;8.20;99.90;;;;;;5143717;27;19956;-69
2023/12/24 04:28:52;;;;;;;;;;;8.20;99.90;;;;;;5129220;27;19915;-68
2023/12/24 04:31:18;;;;;;;;;;;8.20;99.90;;;;;;5137775;27;20236;-69
2023/12/24 04:33:44;;;;;;;;;;;8.30;99.90;;;;;;5129255;27;19915;-68
2023/12/24 04:36:16;;;;;;;;;;;8.20;99.90;;;;;;5138161;27;19911;-69
2023/12/24 04:38:41;;;;;;;;;;;8.20;99.90;;;;;;5146174;27;19989;-68
2023/12/24 04:41:14;;;;;;;;;;;8.20;99.90;;;;;;5141022;27;20008;-69
2023/12/24 04:43:39;;;;;;;;;;;8.20;99.90;;;;;;5125251;27;19911;-68
2023/12/24 04:46:05;;;;;;;;;;;8.30;99.90;;;;;;5146661;27;19915;-69
2023/12/24 04:48:30;;;;;;;;;;;8.30;99.90;;;;;;5137849;27;20002;-69
2023/12/24 04:50:56;;;;;;;;;;;8.30;99.90;;;;;;5134507;27;20465;-69
2023/12/24 04:53:21;;;;;;;;;;;8.30;99.90;;;;;;5130797;27;19911;-68
2023/12/24 04:55:48;;;;;;;;;;;8.30;99.90;;;;;;5140592;27;19916;-69
2023/12/24 04:58:13;;;;;;;;;;;8.30;99.90;;;;;;5137929;27;19959;-69
2023/12/24 05:00:39;;;;;;;;;;;8.30;99.90;;;;;;5144372;27;19992;-68
2023/12/24 05:03:05;;;;;;;;;;;8.30;99.90;;;;;;5144857;27;19933;-69
2023/12/24 05:05:30;;;;;;;;;;;8.30;99.90;;;;;;5153420;27;20567;-69
2023/12/24 05:07:55;;;;;;;;;;;8.30;99.90;;;;;;5137815;27;20418;-68
2023/12/24 05:10:21;;;;;;;;;;;8.30;99.90;;;;;;5130398;27;19911;-68
2023/12/24 05:12:47;;;;;;;;;;;8.30;99.90;;;;;;5152888;27;19911;-68
2023/12/24 05:15:12;;;;;;;;;;;8.30;99.90;;;;;;5147379;27;19918;-69
2023/12/24 05:17:38;;;;;;;;;;;8.30;99.90;;;;;;5140813;27;19930;-69
2023/12/24 05:20:03;;;;;;;;;;;8.30;99.90;;;;;;5148401;27;20586;-68
2023/12/24 05:22:29;;;;;;;;;;;8.30;99.90;;;;;;5149578;27;19911;-68
2023/12/24 05:24:55;;;;;;;;;;;8.40;99.90;;;;;;5149760;27;20742;-68
2023/12/24 05:27:20;;;;;;;;;;;8.30;99.90;;;;;;5153248;27;19914;-68
2023/12/24 05:29:46;;;;;;;;;;;8.40;99.90;;;;;;5141902;27;19918;-68
2023/12/24 05:32:11;;;;;;;;;;;8.40;99.90;;;;;;5132556;27;19919;-68
2023/12/24 05:34:37;;;;;;;;;;;8.30;99.90;;;;;;5149509;27;19950;-69
2023/12/24 05:37:02;;;;;;;;;;;8.40;99.90;;;;;;5145670;27;20295;-68
2023/12/24 05:39:28;;;;;;;;;;;8.40;99.90;;;;;;5145147;27;19911;-68
2023/12/24 05:41:55;;;;;;;;;;;8.30;99.90;;;;;;5148401;27;20217;-68
2023/12/24 05:44:21;;;;;;;;;;;8.40;99.90;;;;;;5132458;27;20345;-68
2023/12/24 05:46:52;;;;;;;;;;;8.40;99.90;;;;;;5140385;27;20728;-68
2023/12/24 05:49:18;;;;;;;;;;;8.40;99.90;;;;;;5132357;27;19911;-68
2023/12/24 05:51:43;;;;;;;;;;;8.40;99.90;;;;;;5138598;27;20368;-68
2023/12/24 05:54:09;;;;;;;;;;;8.40;99.90;;;;;;5144686;27;19921;-68
2023/12/24 05:56:34;;;;;;;;;;;8.40;99.90;;;;;;5140591;27;19934;-68
2023/12/24 05:59:00;;;;;;;;;;;8.40;99.90;;;;;;5136282;27;19915;-68
2023/12/24 06:01:25;;;;;;;;;;;8.40;99.90;;;;;;5126378;27;20006;-68
2023/12/24 06:03:51;;;;;;;;;;;8.40;99.90;;;;;;5149098;27;19952;-68
2023/12/24 06:06:16;;;;;;;;;;;8.40;99.90;;;;;;5142342;27;19919;-68
2023/12/24 06:08:42;;;;;;;;;;;8.40;99.90;;;;;;5136849;27;19916;-68
2023/12/24 06:11:14;;;;;;;;;;;8.40;99.90;;;;;;5144482;27;19938;-68
2023/12/24 06:13:39;;;;;;;;;;;8.40;99.90;;;;;;5129726;27;19912;-69
2023/12/24 06:16:06;;;;;;;;;;;8.40;99.90;;;;;;5140916;27;19918;-68
2023/12/24 06:18:32;;;;;;;;;;;8.40;99.90;;;;;;5140900;27;19935;-68
2023/12/24 06:20:57;;;;;;;;;;;8.40;99.90;;;;;;5149357;27;19911;-68
2023/12/24 06:23:23;;;;;;;;;;;8.40;99.90;;;;;;5133744;27;20655;-68
2023/12/24 06:25:48;;;;;;;;;;;8.40;99.90;;;;;;5144823;27;19936;-68
2023/12/24 06:28:14;;;;;;;;;;;8.40;99.90;;;;;;5140689;27;19942;-68
2023/12/24 06:30:39;;;;;;;;;;;8.40;99.90;;;;;;5140077;27;19910;-68
2023/12/24 06:33:05;;;;;;;;;;;8.40;99.90;;;;;;5135894;27;19964;-68
2023/12/24 06:35:31;;;;;;;;;;;8.40;99.90;;;;;;5145540;27;19911;-68
2023/12/24 06:37:57;;;;;;;;;;;8.40;99.90;;;;;;5149144;27;20320;-68
2023/12/24 06:40:23;;;;;;;;;;;8.50;99.90;;;;;;5130234;27;19911;-68
2023/12/24 06:42:48;;;;;;;;;;;8.40;99.90;;;;;;5112922;27;19922;-68
2023/12/24 06:45:14;;;;;;;;;;;8.40;99.90;;;;;;5142909;27;19918;-68
2023/12/24 06:47:39;;;;;;;;;;;8.40;99.90;;;;;;5144893;27;20010;-68
2023/12/24 06:50:05;;;;;;;;;;;8.40;99.90;;;;;;5132191;27;19911;-68
2023/12/24 06:52:32;;;;;;;;;;;8.50;99.90;;;;;;5140774;27;19919;-69
2023/12/24 06:54:58;;;;;;;;;;;8.40;99.90;;;;;;5101597;27;19972;-68
2023/12/24 06:57:23;;;;;;;;;;;8.40;99.90;;;;;;5109282;27;19916;-68
2023/12/24 06:59:49;;;;;;;;;;;8.50;99.90;;;;;;5138952;27;19972;-68
2023/12/24 07:02:15;;;;;;;;;;;8.40;99.90;;;;;;5139968;27;20320;-68
2023/12/24 07:04:40;;;;;;;;;;;8.50;99.90;;;;;;5138598;27;20682;-68
2023/12/24 07:07:06;;;;;;;;;;;8.50;99.90;;;;;;5129654;27;20007;-68
2023/12/24 07:09:32;;;;;;;;;;;8.40;99.90;;;;;;5144625;27;19914;-68
2023/12/24 07:11:57;;;;;;;;;;;8.50;99.90;;;;;;5116986;27;20423;-68
2023/12/24 07:14:23;;;;;;;;;;;8.50;99.90;;;;;;5143842;27;20585;-68
2023/12/24 07:16:48;;;;;;;;;;;8.50;99.90;;;;;;5145499;27;20421;-68
2023/12/24 07:19:14;;;;;;;;;;;8.50;99.90;;;;;;5141753;27;19911;-69
2023/12/24 07:21:39;;;;;;;;;;;8.50;99.90;;;;;;5130986;27;19919;-69
2023/12/24 07:24:05;;;;;;;;;;;8.50;99.90;;;;;;5129552;27;19999;-69
2023/12/24 07:26:31;;;;;;;;;;;8.50;99.90;;;;;;5117742;27;20233;-69
2023/12/24 07:28:56;;;;;;;;;;;8.50;99.90;;;;;;5125715;27;19915;-69
2023/12/24 07:31:21;;;;;;;;;;;8.50;99.90;;;;;;5134146;27;20475;-68
2023/12/24 07:33:47;;;;;;;;;;;8.50;99.90;;;;;;5145307;27;19911;-68
2023/12/24 07:36:13;;;;;;;;;;;8.50;99.90;;;;;;5142911;27;19911;-68
2023/12/24 07:38:39;;;;;;;;;;;8.50;99.90;;;;;;5135463;27;19914;-68
2023/12/24 07:41:04;;;;;;;;;;;8.50;99.90;;;;;;5135512;27;19915;-68
2023/12/24 07:43:30;;;;;;;;;;;8.50;99.90;;;;;;5143618;27;19964;-69
2023/12/24 07:45:56;;;;;;;;;;;8.50;99.90;;;;;;5127133;27;19911;-69
2023/12/24 07:48:23;;;;;;;;;;;8.50;99.90;;;;;;5142736;27;19995;-68
2023/12/24 07:50:49;;;;;;;;;;;8.50;99.90;;;;;;5136659;27;19917;-68
2023/12/24 07:53:15;;;;;;;;;;;8.60;99.90;;;;;;5108555;27;20381;-69
2023/12/24 07:55:41;;;;;;;;;;;8.60;99.90;;;;;;5126672;27;19912;-69
2023/12/24 07:58:06;;;;;;;;;;;8.60;99.90;;;;;;5131528;27;19917;-68
2023/12/24 08:00:32;;;;;;;;;;;8.60;99.90;;;;;;5138883;27;19964;-68
2023/12/24 08:02:57;;;;;;;;;;;8.60;99.90;;;;;;5138239;27;20343;-69
2023/12/24 08:05:23;;;;;;;;;;;8.60;99.90;;;;;;5147390;27;19915;-69
2023/12/24 08:07:48;;;;;;;;;;;8.60;99.90;;;;;;5134490;27;19923;-69
2023/12/24 08:10:14;;;;;;;;;;;8.60;99.90;;;;;;5140890;27;20018;-68
2023/12/24 08:12:39;;;;;;;;;;;8.60;99.90;;;;;;5127015;27;19918;-68
2023/12/24 08:15:06;;;;;;;;;;;8.60;99.90;;;;;;5142962;27;19915;-69
2023/12/24 08:17:31;;;;;;;;;;;8.60;99.90;;;;;;5132255;27;20006;-69
2023/12/24 08:19:57;;;;;;;;;;;8.60;99.90;;;;;;5138287;27;20002;-69
2023/12/24 08:22:22;;;;;;;;;;;8.60;99.90;;;;;;5119110;27;19915;-68
2023/12/24 08:24:49;;;;;;;;;;;8.60;99.90;;;;;;5122795;27;20002;-69
2023/12/24 08:27:15;;;;;;;;;;;8.60;99.90;;;;;;5136735;27;19922;-69
2023/12/24 08:29:40;;;;;;;;;;;8.60;99.90;;;;;;5145246;27;19911;-69
2023/12/24 08:32:06;;;;;;;;;;;8.70;99.90;;;;;;5134298;27;19974;-68
2023/12/24 08:34:32;;;;;;;;;;;8.70;99.90;;;;;;5134744;27;19914;-68
2023/12/24 08:36:58;;;;;;;;;;;8.70;99.90;;;;;;5134321;27;19956;-68
2023/12/24 08:39:23;;;;;;;;;;;8.70;99.90;;;;;;5134139;27;19912;-69
2023/12/24 08:41:49;;;;;;;;;;;8.70;99.90;;;;;;5125604;27;19912;-68
2023/12/24 08:44:16;;;;;;;;;;;8.70;99.90;;;;;;5117544;27;19911;-68
2023/12/24 08:46:41;;;;;;;;;;;8.70;99.90;;;;;;5124960;27;19931;-69
2023/12/24 08:49:08;;;;;;;;;;;8.70;99.90;;;;;;5125481;27;19945;-69
2023/12/24 08:51:33;;;;;;;;;;;8.70;99.90;;;;;;5117667;27;19947;-69
2023/12/24 08:53:59;;;;;;;;;;;8.70;99.90;;;;;;5122558;27;20715;-68
2023/12/24 08:56:25;;;;;;;;;;;8.70;99.90;;;;;;5119824;28;19939;-69
2023/12/24 08:58:50;;;;;;;;;;;8.70;99.90;;;;;;5116994;28;19912;-69
2023/12/24 09:01:17;;;;;;;;;;;8.70;99.90;;;;;;5126381;27;19937;-68
2023/12/24 09:03:42;;;;;;;;;;;8.70;99.90;;;;;;5125388;27;19956;-68
2023/12/24 09:06:08;;;;;;;;;;;8.80;99.90;;;;;;5125182;27;19916;-69
2023/12/24 09:08:33;;;;;;;;;;;8.70;99.90;;;;;;5116267;28;20413;-68
2023/12/24 09:10:59;;;;;;;;;;;8.80;99.90;;;;;;5124283;27;20695;-69
2023/12/24 09:13:24;;;;;;;;;;;8.80;99.90;;;;;;5141908;27;19911;-69
2023/12/24 09:15:50;;;;;;;;;;;8.80;99.90;;;;;;5146874;27;19922;-68
2023/12/24 09:18:15;;;;;;;;;;;8.80;99.90;;;;;;5135739;27;19912;-69
2023/12/24 09:20:41;;;;;;;;;;;8.80;99.90;;;;;;5108344;27;20002;-69
2023/12/24 09:23:06;;;;;;;;;;;8.80;99.90;;;;;;5134183;27;20264;-69
2023/12/24 09:25:32;;;;;;;;;;;8.80;99.90;;;;;;5120833;27;19998;-69
2023/12/24 09:27:57;;;;;;;;;;;8.80;99.90;;;;;;5117599;27;20481;-68
2023/12/24 09:30:24;;;;;;;;;;;8.80;99.90;;;;;;5128629;27;20598;-68
2023/12/24 09:32:50;;;;;;;;;;;8.80;99.90;;;;;;5123721;27;19927;-69
2023/12/24 09:35:16;;;;;;;;;;;8.80;99.90;;;;;;5129034;27;19956;-68
2023/12/24 09:37:42;;;;;;;;;;;8.80;99.90;;;;;;5117649;27;20524;-68
2023/12/24 09:40:08;;;;;;;;;;;8.90;99.90;;;;;;5128826;27;19911;-69
2023/12/24 09:42:34;;;;;;;;;;;8.90;99.90;;;;;;5137411;27;19911;-68
2023/12/24 09:45:00;;;;;;;;;;;8.90;99.90;;;;;;5130601;27;19998;-69
2023/12/24 09:47:26;;;;;;;;;;;8.90;99.90;;;;;;5133976;27;20292;-69
2023/12/24 09:49:52;;;;;;;;;;;8.90;99.90;;;;;;5125696;27;19915;-68
2023/12/24 09:52:17;;;;;;;;;;;8.90;99.90;;;;;;5122158;27;19912;-68
2023/12/24 09:54:43;;;;;;;;;;;8.90;99.90;;;;;;5110823;27;19912;-69
2023/12/24 09:57:08;;;;;;;;;;;8.90;99.90;;;;;;5136979;27;20014;-68
2023/12/24 09:59:34;;;;;;;;;;;8.90;99.90;;;;;;5119649;27;20203;-69
2023/12/24 10:01:59;;;;;;;;;;;8.90;99.90;;;;;;5127468;27;20003;-69
2023/12/24 10:04:25;;;;;;;;;;;8.90;99.90;;;;;;5125559;27;19918;-69
2023/12/24 10:06:54;;;;;;;;;;;8.90;99.90;;;;;;5125758;27;19911;-68
2023/12/24 10:09:21;;;;;;;;;;;8.90;99.90;;;;;;5110522;27;19916;-68
2023/12/24 10:12:06;;;;;;;;;;;8.90;99.90;;;;;;5122097;27;19912;-69
2023/12/24 10:14:31;;;;;;;;;;;8.90;99.90;;;;;;5126438;27;19919;-69
2023/12/24 10:17:00;;;;;;;;;;;8.90;99.90;;;;;;5119890;27;19907;-69
2023/12/24 10:19:27;;;;;;;;;;;8.90;99.90;;;;;;5131712;27;19960;-69
2023/12/24 10:22:06;;;;;;;;;;;8.90;99.90;;;;;;5126955;27;19967;-68
2023/12/24 10:24:41;;;;;;;;;;;8.90;99.90;;;;;;5125056;27;19911;-69
2023/12/24 10:27:07;;;;;;;;;;;9.00;99.90;;;;;;5108545;27;19938;-69
2023/12/24 10:29:34;;;;;;;;;;;9.00;99.90;;;;;;5127174;27;19908;-69
2023/12/24 10:31:59;;;;;;;;;;;9.00;99.90;;;;;;5127814;27;19926;-69
2023/12/24 10:34:25;;;;;;;;;;;9.00;99.90;;;;;;5129332;27;19916;-68
2023/12/24 10:36:51;;;;;;;;;;;9.00;99.90;;;;;;5128028;27;19911;-68
2023/12/24 10:39:24;;;;;;;;;;;9.00;99.90;;;;;;5113643;27;19950;-69
2023/12/24 10:41:58;;;;;;;;;;;9.00;99.90;;;;;;5132060;27;19968;-69
2023/12/24 10:44:24;;;;;;;;;;;9.00;99.90;;;;;;5141923;27;19927;-69
2023/12/24 10:46:50;;;;;;;;;;;9.00;99.90;;;;;;5151446;27;19911;-68
2023/12/24 10:49:15;;;;;;;;;;;9.00;99.90;;;;;;5132712;27;19923;-69
2023/12/24 10:51:41;;;;;;;;;;;9.10;99.90;;;;;;5137532;27;19967;-69
2023/12/24 10:54:07;;;;;;;;;;;9.10;99.90;;;;;;5133104;27;19911;-69
2023/12/24 10:56:36;;;;;;;;;;;9.00;99.90;;;;;;5131133;27;19919;-68
2023/12/24 10:59:22;;;;;;;;;;;9.10;99.90;;;;;;5119588;27;20312;-68
2023/12/24 11:01:48;;;;;;;;;;;9.10;99.90;;;;;;5141690;27;19915;-69
2023/12/24 11:04:33;;;;;;;;;;;9.10;99.90;;;;;;5121499;27;19942;-68
2023/12/24 11:07:04;;;;;;;;;;;9.10;99.90;;;;;;5125939;27;19912;-68
2023/12/24 11:09:29;;;;;;;;;;;9.10;99.90;;;;;;5127095;27;19915;-68
2023/12/24 11:11:55;;;;;;;;;;;9.10;99.90;;;;;;5131948;27;19987;-69
2023/12/24 11:14:36;;;;;;;;;;;9.10;99.90;;;;;;5122980;27;20793;-68
2023/12/24 11:17:02;;;;;;;;;;;9.10;99.90;;;;;;5106872;27;19911;-69
2023/12/24 11:19:28;;;;;;;;;;;9.10;99.90;;;;;;5122221;27;19907;-68
2023/12/24 11:22:09;;;;;;;;;;;9.10;99.90;;;;;;5127238;27;19964;-69
2023/12/24 11:24:41;;;;;;;;;;;9.10;99.90;;;;;;5101118;27;19922;-68
2023/12/24 11:27:08;;;;;;;;;;;9.20;99.90;;;;;;5121721;27;19918;-68
2023/12/24 11:29:39;;;;;;;;;;;9.20;99.90;;;;;;5125020;27;19976;-68
2023/12/24 11:32:23;;;;;;;;;;;9.10;99.90;;;;;;5124116;27;20591;-68
2023/12/24 11:34:49;;;;;;;;;;;9.10;99.90;;;;;;5134385;27;19912;-68
2023/12/24 11:37:24;;;;;;;;;;;9.20;99.90;;;;;;5107328;27;19971;-68
2023/12/24 11:40:03;;;;;;;;;;;9.10;99.90;;;;;;5127791;27;19911;-69
2023/12/24 11:42:39;;;;;;;;;;;9.20;99.90;;;;;;5100644;27;19907;-68
2023/12/24 11:45:05;;;;;;;;;;;9.20;99.90;;;;;;5118255;27;19943;-69
2023/12/24 11:47:31;;;;;;;;;;;9.20;99.90;;;;;;5107283;27;20014;-68
2023/12/24 11:49:57;;;;;;;;;;;9.20;99.90;;;;;;5134461;27;20671;-69
2023/12/24 11:52:22;;;;;;;;;;;9.20;99.90;;;;;;5140060;27;19907;-69
2023/12/24 11:54:48;;;;;;;;;;;9.20;99.90;;;;;;5124914;27;19911;-68
2023/12/24 11:57:24;;;;;;;;;;;9.20;99.90;;;;;;5106615;27;19922;-68
2023/12/24 11:59:49;;;;;;;;;;;9.20;99.90;;;;;;5124262;27;19916;-69
2023/12/24 12:02:15;;;;;;;;;;;9.20;99.90;;;;;;5128123;27;19921;-69
2023/12/24 12:04:41;;;;;;;;;;;9.30;99.90;;;;;;5130542;27;20007;-69
2023/12/24 12:07:08;;;;;;;;;;;9.20;99.90;;;;;;5123449;27;19939;-68
2023/12/24 12:09:33;;;;;;;;;;;9.30;99.90;;;;;;5123881;27;19918;-68
2023/12/24 12:11:59;;;;;;;;;;;9.30;99.90;;;;;;5124285;27;19911;-69
2023/12/24 12:14:25;;;;;;;;;;;9.30;99.90;;;;;;5123484;27;19929;-68
2023/12/24 12:16:50;;;;;;;;;;;9.30;99.90;;;;;;5122365;27;20060;-68
2023/12/24 12:19:16;;;;;;;;;;;9.30;99.90;;;;;;5125371;27;20316;-69
2023/12/24 12:21:43;;;;;;;;;;;9.30;99.90;;;;;;5126493;27;20402;-69
2023/12/24 12:24:09;;;;;;;;;;;9.30;99.90;;;;;;5125868;27;20006;-68
2023/12/24 12:26:34;;;;;;;;;;;9.30;99.90;;;;;;5123472;27;20003;-69
2023/12/24 12:29:00;;;;;;;;;;;9.40;99.90;;;;;;5123519;27;20372;-68
2023/12/24 12:31:25;;;;;;;;;;;9.40;99.90;;;;;;5123223;27;19919;-69
2023/12/24 12:33:51;;;;;;;;;;;9.30;99.90;;;;;;5129687;27;19912;-69
2023/12/24 12:36:17;;;;;;;;;;;9.40;99.90;;;;;;5126734;27;19915;-69
2023/12/24 12:38:42;;;;;;;;;;;9.40;99.90;;;;;;5108019;27;19969;-68
2023/12/24 12:41:08;;;;;;;;;;;9.40;99.90;;;;;;5125501;27;20002;-68
2023/12/24 12:43:34;;;;;;;;;;;9.40;99.90;;;;;;5134502;27;19964;-69
2023/12/24 12:46:00;;;;;;;;;;;9.40;99.90;;;;;;5145444;27;19918;-68
2023/12/24 12:48:25;;;;;;;;;;;9.40;99.90;;;;;;5119960;27;19919;-69
2023/12/24 12:50:51;;;;;;;;;;;9.40;99.90;;;;;;5121698;27;19923;-69
2023/12/24 12:53:25;;;;;;;;;;;9.40;99.90;;;;;;5115340;27;19921;-68
2023/12/24 12:55:59;;;;;;;;;;;9.40;99.90;;;;;;5126228;27;20348;-68
2023/12/24 12:58:24;;;;;;;;;;;9.40;99.90;;;;;;5122147;27;20359;-69
2023/12/24 13:00:56;;;;;;;;;;;9.40;99.90;;;;;;5133677;27;19911;-68
2023/12/24 13:03:21;;;;;;;;;;;9.40;99.90;;;;;;5117581;27;19988;-68
2023/12/24 13:05:47;;;;;;;;;;;9.40;99.90;;;;;;5127086;27;20368;-68
2023/12/24 13:08:13;;;;;;;;;;;9.50;99.90;;;;;;5118462;27;20732;-68
2023/12/24 13:10:39;;;;;;;;;;;9.40;99.90;;;;;;5112304;27;19930;-68
2023/12/24 13:13:05;;;;;;;;;;;9.50;99.90;;;;;;5117169;27;20547;-68
2023/12/24 13:15:31;;;;;;;;;;;9.50;99.90;;;;;;5132259;27;19960;-69
2023/12/24 13:18:14;;;;;;;;;;;9.50;99.90;;;;;;5118816;27;19907;-68
2023/12/24 13:20:39;;;;;;;;;;;9.40;99.90;;;;;;5135064;27;20526;-68
2023/12/24 13:23:07;;;;;;;;;;;9.40;99.90;;;;;;5118999;27;19921;-68
2023/12/24 13:25:33;;;;;;;;;;;9.50;99.90;;;;;;5121581;27;19933;-68
2023/12/24 13:27:58;;;;;;;;;;;9.40;99.90;;;;;;5130993;27;20379;-69
2023/12/24 13:30:24;;;;;;;;;;;9.40;99.90;;;;;;5127503;27;19989;-69
2023/12/24 13:32:49;;;;;;;;;;;9.50;99.90;;;;;;5127798;27;19938;-68
2023/12/24 13:35:15;;;;;;;;;;;9.50;99.90;;;;;;5143993;27;19942;-68
2023/12/24 13:37:41;;;;;;;;;;;9.50;99.90;;;;;;5119872;27;19984;-69
2023/12/24 13:40:07;;;;;;;;;;;9.50;99.90;;;;;;5136101;27;20026;-68
2023/12/24 13:42:33;;;;;;;;;;;9.50;99.90;;;;;;5129011;27;19998;-68
2023/12/24 13:44:58;;;;;;;;;;;9.50;99.90;;;;;;5138503;27;20677;-68
2023/12/24 13:47:24;;;;;;;;;;;9.50;99.90;;;;;;5142281;27;19911;-69
2023/12/24 13:49:49;;;;;;;;;;;9.50;99.90;;;;;;5137401;27;19911;-69
2023/12/24 13:52:15;;;;;;;;;;;9.50;99.90;;;;;;5149431;27;19918;-69
2023/12/24 13:54:40;;;;;;;;;;;9.50;99.90;;;;;;5146259;27;20330;-68
2023/12/24 13:57:07;;;;;;;;;;;9.50;99.90;;;;;;5140691;27;19915;-68
2023/12/24 13:59:33;;;;;;;;;;;9.50;99.90;;;;;;5140621;27;19918;-69
2023/12/24 14:01:58;;;;;;;;;;;9.60;99.90;;;;;;5148541;27;20957;-68
2023/12/24 14:04:24;;;;;;;;;;;9.60;99.90;;;;;;5148926;27;19918;-68
2023/12/24 14:06:50;;;;;;;;;;;9.60;99.90;;;;;;5135827;27;19923;-68
2023/12/24 14:09:15;;;;;;;;;;;9.50;99.90;;;;;;5148355;27;19915;-68
2023/12/24 14:11:41;;;;;;;;;;;9.60;99.90;;;;;;5148473;27;19911;-68
2023/12/24 14:14:08;;;;;;;;;;;9.60;99.90;;;;;;5145197;27;19956;-68
2023/12/24 14:16:34;;;;;;;;;;;9.60;99.90;;;;;;5144372;27;20356;-68
2023/12/24 14:18:59;;;;;;;;;;;9.60;99.90;;;;;;5148191;27;19961;-68
2023/12/24 14:21:25;;;;;;;;;;;9.60;99.90;;;;;;5123264;27;19919;-69
2023/12/24 14:23:50;;;;;;;;;;;9.60;99.90;;;;;;5136379;27;20622;-69
2023/12/24 14:26:16;;;;;;;;;;;9.60;99.90;;;;;;5141237;27;19915;-68